Time;durP1;ratioP1;P1;durP2;ratioP2;P2;SDS_P1;SDS_P2;PMS_P1;PMS_P2;Temp;Humidity;BMP_temperature;BMP_pressure;BME280_temperature;BME280_humidity;BME280_pressure;Samples;Min_cycle;Max_cycle;Signal;HPM_P1;HPM_P2
2023/08/08 00:02:23;;;;;;;0.10;0.10;;;;;;;10.53;100.00;96562.59;5011728;28;20545;-83
2023/08/08 00:05:09;;;;;;;0.10;0.10;;;;;;;10.42;100.00;96558.13;5015777;28;21958;-84
2023/08/08 00:07:55;;;;;;;0.10;0.10;;;;;;;10.52;100.00;96552.94;5011651;28;20862;-83
2023/08/08 00:10:41;;;;;;;0.10;0.10;;;;;;;10.54;100.00;96563.41;5013976;28;20040;-82
2023/08/08 00:13:27;;;;;;;0.10;0.10;;;;;;;10.53;100.00;96567.94;5014638;28;20037;-83
2023/08/08 00:16:13;;;;;;;0.10;0.10;;;;;;;10.43;100.00;96558.97;4997343;28;20051;-84
2023/08/08 00:18:59;;;;;;;0.10;0.10;;;;;;;10.39;100.00;96563.16;5013967;28;20038;-82
2023/08/08 00:21:44;;;;;;;0.10;0.10;;;;;;;10.36;100.00;96555.66;5014000;28;20100;-85
2023/08/08 00:24:30;;;;;;;0.10;0.10;;;;;;;10.28;100.00;96556.88;5015540;28;20038;-81
2023/08/08 00:27:18;;;;;;;0.10;0.10;;;;;;;10.21;100.00;96538.28;5013104;28;20030;-83
2023/08/08 00:30:04;;;;;;;0.10;0.10;;;;;;;10.14;100.00;96548.31;5016576;28;20087;-84
2023/08/08 00:32:50;;;;;;;0.20;0.20;;;;;;;10.04;100.00;96538.28;4997001;28;20056;-82
2023/08/08 00:35:36;;;;;;;0.10;0.10;;;;;;;10.04;100.00;96543.63;5015530;28;20041;-83
2023/08/08 00:38:22;;;;;;;0.10;0.10;;;;;;;10.11;100.00;96540.75;5012628;28;20499;-81
2023/08/08 00:41:08;;;;;;;0.10;0.10;;;;;;;10.21;100.00;96537.47;5014113;28;20059;-84
2023/08/08 00:43:54;;;;;;;0.10;0.10;;;;;;;10.28;100.00;96538.94;5013500;28;20037;-84
2023/08/08 00:46:40;;;;;;;0.10;0.10;;;;;;;10.30;100.00;96533.34;5013962;28;20029;-82
2023/08/08 00:49:26;;;;;;;0.10;0.10;;;;;;;10.36;100.00;96532.38;5004958;28;20044;-82
2023/08/08 00:52:13;;;;;;;0.10;0.10;;;;;;;10.43;100.00;96526.88;5020588;28;20802;-84
2023/08/08 00:54:59;;;;;;;0.10;0.10;;;;;;;10.48;100.00;96526.91;5014222;28;20451;-82
2023/08/08 00:57:45;;;;;;;0.10;0.10;;;;;;;10.49;100.00;96528.53;5014996;28;20056;-83
2023/08/08 01:00:39;;;;;;;0.10;0.10;;;;;;;10.51;100.00;96521.09;5013899;28;20049;-84
2023/08/08 01:03:26;;;;;;;0.10;0.10;;;;;;;10.44;100.00;96515.09;4999373;28;20037;-83
2023/08/08 01:06:25;;;;;;;0.10;0.10;;;;;;;10.39;100.00;96515.84;5014432;28;20052;-84
2023/08/08 01:09:29;;;;;;;0.10;0.10;;;;;;;10.28;100.00;96522.09;5012322;28;20167;-83
2023/08/08 01:12:15;;;;;;;0.10;0.10;;;;;;;10.27;100.00;96515.09;5012252;28;20582;-83
2023/08/08 01:15:01;;;;;;;0.20;0.20;;;;;;;10.23;100.00;96520.16;4999999;28;20839;-83
2023/08/08 01:17:48;;;;;;;0.20;0.20;;;;;;;10.26;100.00;96513.47;5013519;28;20098;-81
2023/08/08 01:20:35;;;;;;;0.10;0.10;;;;;;;10.25;100.00;96515.34;5000295;28;20080;-83
2023/08/08 01:23:30;;;;;;;0.10;0.10;;;;;;;10.32;100.00;96513.31;4995352;28;20507;-81
2023/08/08 01:26:16;;;;;;;0.10;0.10;;;;;;;10.29;100.00;96507.66;5013534;28;20128;-81
2023/08/08 01:29:02;;;;;;;0.10;0.10;;;;;;;10.31;100.00;96508.22;5012747;28;20033;-84
2023/08/08 01:31:48;;;;;;;0.10;0.10;;;;;;;10.27;100.00;96504.41;5012299;28;20041;-82
2023/08/08 01:34:33;;;;;;;0.10;0.10;;;;;;;10.14;100.00;96507.41;5018965;28;20048;-82
2023/08/08 01:37:24;;;;;;;0.20;0.20;;;;;;;10.05;100.00;96502.47;5017171;28;20037;-83
2023/08/08 01:40:15;;;;;;;0.10;0.10;;;;;;;10.09;100.00;96501.97;5001165;28;21479;-83
2023/08/08 01:43:03;;;;;;;0.10;0.10;;;;;;;10.14;100.00;96492.16;5001827;28;20111;-82
2023/08/08 01:45:52;;;;;;;0.10;0.10;;;;;;;10.12;100.00;96504.97;5020703;28;20045;-81
2023/08/08 01:48:37;;;;;;;0.10;0.10;;;;;;;10.10;100.00;96498.25;5003728;28;20047;-82
2023/08/08 01:51:25;;;;;;;0.10;0.10;;;;;;;10.12;100.00;96496.16;5020168;28;20508;-83
2023/08/08 01:54:11;;;;;;;0.10;0.10;;;;;;;10.23;100.00;96500.63;5017113;28;20099;-81
2023/08/08 01:56:57;;;;;;;0.10;0.10;;;;;;;10.28;100.00;96495.34;5001072;28;20037;-83
2023/08/08 01:59:45;;;;;;;0.08;0.08;;;;;;;10.46;100.00;96489.72;5003787;28;20065;-82
2023/08/08 02:02:35;;;;;;;0.10;0.10;;;;;;;10.40;100.00;96492.56;5004723;28;20068;-83
2023/08/08 02:05:21;;;;;;;0.13;0.13;;;;;;;10.34;100.00;96486.31;5024714;28;20107;-82
2023/08/08 02:08:07;;;;;;;0.10;0.10;;;;;;;10.21;100.00;96489.34;5021744;28;20787;-82
2023/08/08 02:10:54;;;;;;;0.10;0.10;;;;;;;10.12;100.00;96482.78;5016150;28;20069;-84
2023/08/08 02:13:41;;;;;;;0.10;0.10;;;;;;;10.02;100.00;96483.41;5019957;28;20041;-81
2023/08/08 02:16:26;;;;;;;0.10;0.10;;;;;;;9.96;100.00;96490.56;5002493;28;20045;-83
2023/08/08 02:19:13;;;;;;;0.10;0.10;;;;;;;9.95;100.00;96488.13;5000328;28;20037;-83
2023/08/08 02:21:58;;;;;;;0.10;0.10;;;;;;;9.86;100.00;96486.91;5014150;28;20056;-83
2023/08/08 02:24:44;;;;;;;0.10;0.10;;;;;;;9.83;100.00;96488.22;5017227;28;20052;-84
2023/08/08 02:27:30;;;;;;;0.10;0.10;;;;;;;9.80;100.00;96491.34;4999955;28;20041;-83
2023/08/08 02:30:17;;;;;;;0.10;0.10;;;;;;;9.89;100.00;96492.59;5004035;28;20406;-85
2023/08/08 02:33:03;;;;;;;0.10;0.10;;;;;;;9.91;100.00;96487.00;5017018;28;20041;-83
2023/08/08 02:35:49;;;;;;;0.10;0.10;;;;;;;9.97;100.00;96489.50;5018771;28;20465;-83
2023/08/08 02:38:35;;;;;;;0.10;0.10;;;;;;;9.96;100.00;96489.72;5016496;28;20045;-84
2023/08/08 02:41:21;;;;;;;0.10;0.10;;;;;;;9.95;100.00;96490.78;5004124;28;20037;-84
2023/08/08 02:44:07;;;;;;;0.10;0.10;;;;;;;9.94;100.00;96499.88;5014121;28;20492;-84
2023/08/08 02:46:53;;;;;;;0.10;0.10;;;;;;;9.94;100.00;96494.50;5018546;28;20038;-85
2023/08/08 02:49:39;;;;;;;0.10;0.10;;;;;;;9.86;100.00;96482.38;5016377;28;20033;-85
2023/08/08 02:52:26;;;;;;;0.10;0.10;;;;;;;9.88;100.00;96485.59;5015742;28;20046;-85
2023/08/08 02:55:12;;;;;;;0.10;0.10;;;;;;;9.83;100.00;96487.41;5016628;28;21068;-84
2023/08/08 02:57:59;;;;;;;0.10;0.10;;;;;;;9.81;100.00;96479.63;4997923;28;20108;-81
2023/08/08 03:00:45;;;;;;;0.10;0.10;;;;;;;9.71;100.00;96474.09;5015874;28;20053;-83
2023/08/08 03:03:36;;;;;;;0.10;0.10;;;;;;;9.67;100.00;96476.47;5000486;28;20037;-84
2023/08/08 03:06:22;;;;;;;0.10;0.10;;;;;;;9.59;100.00;96481.41;4997788;28;20081;-81
2023/08/08 03:09:09;;;;;;;0.10;0.10;;;;;;;9.49;100.00;96476.66;4976382;28;20038;-83
2023/08/08 03:11:57;;;;;;;0.10;0.10;;;;;;;9.44;100.00;96473.94;4986936;28;20092;-82
2023/08/08 03:14:43;;;;;;;0.10;0.10;;;;;;;9.36;100.00;96472.44;4978918;28;20046;-81
2023/08/08 03:17:29;;;;;;;0.10;0.10;;;;;;;9.38;100.00;96478.34;4988188;28;20038;-82
2023/08/08 03:20:16;;;;;;;0.10;0.10;;;;;;;9.36;100.00;96471.66;4990435;28;20045;-84
2023/08/08 03:23:02;;;;;;;0.00;0.00;;;;;;;9.35;100.00;96467.34;4973851;28;20034;-84
2023/08/08 03:25:49;;;;;;;0.10;0.10;;;;;;;9.25;100.00;96475.16;4973345;28;20066;-84
2023/08/08 03:28:35;;;;;;;0.10;0.10;;;;;;;9.25;100.00;96470.63;4973638;28;20110;-82
2023/08/08 03:31:24;;;;;;;0.10;0.10;;;;;;;9.22;100.00;96471.13;4976339;28;20092;-81
2023/08/08 03:34:10;;;;;;;0.10;0.10;;;;;;;9.16;100.00;96466.72;4975900;28;20050;-83
2023/08/08 03:36:57;;;;;;;0.10;0.10;;;;;;;9.12;100.00;96461.06;4975912;28;20038;-82
2023/08/08 03:39:43;;;;;;;0.10;0.10;;;;;;;9.11;100.00;96466.66;4972373;28;20129;-81
2023/08/08 03:42:29;;;;;;;0.10;0.10;;;;;;;9.08;100.00;96461.78;4988036;28;20042;-81
2023/08/08 03:45:16;;;;;;;0.10;0.10;;;;;;;9.09;100.00;96464.19;4988462;28;20041;-84
2023/08/08 03:48:02;;;;;;;0.10;0.10;;;;;;;9.05;100.00;96468.41;4976252;28;20680;-84
2023/08/08 03:50:48;;;;;;;0.10;0.10;;;;;;;9.01;100.00;96459.25;4988464;28;20129;-83
2023/08/08 03:53:34;;;;;;;0.15;0.15;;;;;;;9.00;100.00;96454.97;4987266;28;20121;-81
2023/08/08 03:56:20;;;;;;;0.10;0.10;;;;;;;8.94;100.00;96466.59;4976363;28;20041;-82
2023/08/08 03:59:07;;;;;;;0.20;0.20;;;;;;;8.92;100.00;96461.50;4994090;28;20037;-82
2023/08/08 04:01:53;;;;;;;0.10;0.10;;;;;;;8.91;100.00;96465.22;4981152;28;20042;-81
2023/08/08 04:04:39;;;;;;;0.10;0.10;;;;;;;8.95;100.00;96462.88;4978395;28;20048;-84
2023/08/08 04:07:24;;;;;;;0.10;0.10;;;;;;;8.98;100.00;96462.41;5009866;28;20100;-84
2023/08/08 04:10:10;;;;;;;0.10;0.10;;;;;;;8.95;100.00;96454.88;4997471;28;20046;-82
2023/08/08 04:12:56;;;;;;;0.10;0.10;;;;;;;8.97;100.00;96452.78;4996825;28;20038;-82
2023/08/08 04:15:42;;;;;;;0.10;0.10;;;;;;;8.97;100.00;96452.78;4995572;28;20116;-83
2023/08/08 04:18:28;;;;;;;0.10;0.10;;;;;;;9.00;100.00;96452.28;4996942;28;20153;-83
2023/08/08 04:21:14;;;;;;;0.10;0.10;;;;;;;9.04;100.00;96452.66;4995553;28;20048;-84
2023/08/08 04:24:00;;;;;;;0.10;0.10;;;;;;;9.03;100.00;96449.16;4996587;28;20045;-82
2023/08/08 04:26:45;;;;;;;0.10;0.10;;;;;;;9.04;100.00;96456.13;4998784;28;20967;-82
2023/08/08 04:29:31;;;;;;;0.05;0.05;;;;;;;9.07;100.00;96452.97;4998973;28;20029;-82
2023/08/08 04:32:17;;;;;;;0.10;0.10;;;;;;;9.05;100.00;96451.59;4995811;28;20037;-83
2023/08/08 04:35:03;;;;;;;0.10;0.10;;;;;;;9.06;100.00;96456.69;4997186;28;20048;-83
2023/08/08 04:37:49;;;;;;;0.10;0.10;;;;;;;9.09;100.00;96460.72;4997609;28;20037;-85
2023/08/08 04:40:35;;;;;;;0.10;0.10;;;;;;;9.05;100.00;96457.75;4996332;28;20057;-81
2023/08/08 04:43:24;;;;;;;0.10;0.10;;;;;;;9.05;100.00;96454.25;4994573;28;20041;-82
2023/08/08 04:46:09;;;;;;;0.10;0.10;;;;;;;9.08;100.00;96456.44;4996965;28;20111;-82
2023/08/08 04:48:55;;;;;;;0.10;0.10;;;;;;;9.10;100.00;96449.00;4994667;28;20038;-81
2023/08/08 04:51:41;;;;;;;0.20;0.20;;;;;;;9.18;100.00;96457.47;4998141;28;20041;-82
2023/08/08 04:54:29;;;;;;;0.10;0.10;;;;;;;9.20;100.00;96447.34;4994002;28;20178;-82
2023/08/08 04:57:15;;;;;;;0.10;0.10;;;;;;;9.23;100.00;96445.22;4996646;28;20037;-80
2023/08/08 05:00:05;;;;;;;0.10;0.10;;;;;;;9.23;100.00;96439.88;4995912;28;20504;-80
2023/08/08 05:02:50;;;;;;;0.10;0.10;;;;;;;9.24;100.00;96441.50;4996356;28;20046;-81
2023/08/08 05:05:36;;;;;;;0.10;0.10;;;;;;;9.25;100.00;96445.78;4990720;28;20089;-83
2023/08/08 05:08:22;;;;;;;0.10;0.10;;;;;;;9.27;100.00;96447.19;4978610;28;20054;-82
2023/08/08 05:11:08;;;;;;;0.10;0.10;;;;;;;9.29;100.00;96452.28;4974171;28;20034;-82
2023/08/08 05:13:54;;;;;;;0.10;0.10;;;;;;;9.33;100.00;96446.22;4976278;28;20050;-81
2023/08/08 05:16:40;;;;;;;0.20;0.20;;;;;;;9.41;100.00;96447.69;4977333;28;20049;-82
2023/08/08 05:19:26;;;;;;;0.17;0.17;;;;;;;9.42;100.00;96438.63;4973795;28;20177;-81
2023/08/08 05:22:12;;;;;;;0.10;0.10;;;;;;;9.49;100.00;96439.28;4975730;28;20045;-81
2023/08/08 05:24:58;;;;;;;0.10;0.10;;;;;;;9.52;100.00;96436.13;4975917;28;20042;-80
2023/08/08 05:27:43;;;;;;;0.10;0.10;;;;;;;9.47;100.00;96436.03;4972416;28;20549;-81
2023/08/08 05:30:29;;;;;;;0.10;0.10;;;;;;;9.52;100.00;96436.13;4975309;28;20035;-81
2023/08/08 05:33:15;;;;;;;0.10;0.10;;;;;;;9.59;100.00;96436.78;4973075;28;20849;-81
2023/08/08 05:36:01;;;;;;;0.10;0.10;;;;;;;9.68;100.00;96439.88;4976368;28;20040;-80
2023/08/08 05:38:47;;;;;;;0.10;0.10;;;;;;;9.74;100.00;96431.69;4978397;28;20042;-84
2023/08/08 05:41:33;;;;;;;0.10;0.10;;;;;;;9.82;100.00;96440.34;4977592;28;20523;-83
2023/08/08 05:44:19;;;;;;;0.10;0.10;;;;;;;9.91;100.00;96430.88;4975748;28;20172;-82
2023/08/08 05:47:05;;;;;;;0.10;0.10;;;;;;;9.90;100.00;96431.94;4975256;28;20871;-80
2023/08/08 05:49:51;;;;;;;0.20;0.20;;;;;;;9.91;100.00;96429.00;4975399;28;20066;-80
2023/08/08 05:52:37;;;;;;;0.10;0.10;;;;;;;9.95;100.00;96422.09;4976050;28;20152;-80
2023/08/08 05:55:24;;;;;;;0.20;0.20;;;;;;;10.00;100.00;96432.88;4977758;28;20827;-81
2023/08/08 05:58:10;;;;;;;0.10;0.10;;;;;;;10.02;100.00;96421.94;4972344;28;20077;-80
2023/08/08 06:00:56;;;;;;;0.10;0.10;;;;;;;10.21;100.00;96420.59;4974875;28;20767;-80
2023/08/08 06:03:42;;;;;;;0.10;0.10;;;;;;;10.35;100.00;96428.28;4975440;28;20042;-81
2023/08/08 06:06:28;;;;;;;0.10;0.10;;;;;;;10.38;100.00;96433.16;5002339;28;20460;-80
2023/08/08 06:09:14;;;;;;;0.10;0.10;;;;;;;10.51;100.00;96441.63;5015373;28;20045;-80
2023/08/08 06:11:59;;;;;;;0.10;0.10;;;;;;;10.44;100.00;96440.19;5016062;28;20051;-82
2023/08/08 06:14:45;;;;;;;0.13;0.13;;;;;;;10.55;100.00;96440.06;5015913;28;20038;-80
2023/08/08 06:17:31;;;;;;;0.10;0.10;;;;;;;10.61;100.00;96432.91;5014575;28;20124;-81
2023/08/08 06:20:17;;;;;;;0.20;0.20;;;;;;;10.75;100.00;96436.03;5002544;28;20037;-80
2023/08/08 06:23:03;;;;;;;0.10;0.10;;;;;;;10.79;100.00;96435.28;5018966;28;20039;-83
2023/08/08 06:25:49;;;;;;;0.10;0.10;;;;;;;10.94;100.00;96440.00;5019263;28;20825;-81
2023/08/08 06:28:35;;;;;;;0.10;0.10;;;;;;;11.11;100.00;96431.88;5019234;28;20045;-81
2023/08/08 06:31:22;;;;;;;0.10;0.10;;;;;;;11.18;100.00;96443.19;5018298;28;20464;-81
2023/08/08 06:34:08;;;;;;;0.10;0.10;;;;;;;11.35;100.00;96443.09;5018870;28;20086;-81
2023/08/08 06:36:53;;;;;;;0.10;0.10;;;;;;;11.37;100.00;96433.75;5017696;28;20428;-81
2023/08/08 06:39:40;;;;;;;0.20;0.20;;;;;;;11.35;100.00;96445.78;5018706;28;20973;-81
2023/08/08 06:42:25;;;;;;;0.10;0.10;;;;;;;11.80;100.00;96448.06;5015265;28;20158;-81
2023/08/08 06:45:16;;;;;;;0.20;0.20;;;;;;;12.23;100.00;96447.06;5018759;28;20562;-81
2023/08/08 06:48:02;;;;;;;0.10;0.10;;;;;;;12.36;100.00;96448.44;5018155;28;20381;-82
2023/08/08 06:50:48;;;;;;;0.10;0.10;;;;;;;12.53;100.00;96438.38;5019818;28;20041;-82
2023/08/08 06:53:34;;;;;;;0.10;0.10;;;;;;;12.83;100.00;96443.03;5019758;28;20919;-82
2023/08/08 06:56:20;;;;;;;0.10;0.10;;;;;;;12.58;100.00;96434.88;5018216;28;20128;-79
2023/08/08 06:59:05;;;;;;;0.10;0.10;;;;;;;12.42;100.00;96441.25;5018040;28;20044;-80
2023/08/08 07:01:51;;;;;;;0.13;0.13;;;;;;;12.60;100.00;96445.34;5019014;28;20034;-81
2023/08/08 07:04:37;;;;;;;0.10;0.10;;;;;;;12.80;100.00;96442.78;5017110;28;20037;-80
2023/08/08 07:07:23;;;;;;;0.20;0.20;;;;;;;12.77;100.00;96436.06;5018410;28;20106;-79
2023/08/08 07:10:09;;;;;;;0.10;0.10;;;;;;;13.12;100.00;96439.91;5018058;28;20044;-81
2023/08/08 07:12:55;;;;;;;0.10;0.10;;;;;;;13.30;100.00;96444.03;5016046;28;20052;-80
2023/08/08 07:15:41;;;;;;;0.10;0.10;;;;;;;13.29;100.00;96442.41;5015586;28;20470;-80
2023/08/08 07:18:27;;;;;;;0.10;0.10;;;;;;;13.45;100.00;96435.97;5015320;28;20453;-80
2023/08/08 07:21:13;;;;;;;0.10;0.10;;;;;;;13.31;100.00;96440.28;5019596;28;22287;-82
2023/08/08 07:23:58;;;;;;;0.17;0.17;;;;;;;13.40;100.00;96430.63;5016640;28;20123;-81
2023/08/08 07:26:44;;;;;;;0.10;0.10;;;;;;;13.55;100.00;96435.22;5017576;28;20133;-81
2023/08/08 07:29:30;;;;;;;0.17;0.17;;;;;;;13.62;100.00;96433.88;5015941;28;20045;-82
2023/08/08 07:32:16;;;;;;;0.10;0.10;;;;;;;13.73;100.00;96437.34;5014460;28;20087;-81
2023/08/08 07:35:05;;;;;;;0.10;0.10;;;;;;;13.85;100.00;96434.38;5017948;28;20515;-81
2023/08/08 07:37:51;;;;;;;0.10;0.10;;;;;;;13.62;100.00;96441.13;5014605;28;20052;-80
2023/08/08 07:40:37;;;;;;;0.10;0.10;;;;;;;13.70;100.00;96442.47;5016986;28;20511;-81
2023/08/08 07:43:23;;;;;;;0.10;0.10;;;;;;;13.68;100.00;96449.97;4999172;28;20079;-81
2023/08/08 07:46:09;;;;;;;0.20;0.20;;;;;;;13.77;100.00;96440.31;5018425;28;20044;-81
2023/08/08 07:48:55;;;;;;;0.10;0.10;;;;;;;13.68;100.00;96444.59;5002700;28;20080;-82
2023/08/08 07:51:41;;;;;;;0.13;0.13;;;;;;;13.63;100.00;96442.75;5016504;28;20042;-82
2023/08/08 07:54:26;;;;;;;0.10;0.10;;;;;;;13.45;100.00;96445.94;5015021;28;20037;-81
2023/08/08 07:57:12;;;;;;;0.10;0.10;;;;;;;13.41;100.00;96440.28;5015399;28;20049;-82
2023/08/08 07:59:58;;;;;;;0.10;0.10;;;;;;;13.28;100.00;96435.41;5003738;28;20845;-81
2023/08/08 08:02:45;;;;;;;0.10;0.10;;;;;;;13.27;100.00;96439.19;5016822;28;20041;-82
2023/08/08 08:05:32;;;;;;;0.10;0.10;;;;;;;13.09;100.00;96433.22;5015828;28;20088;-82
2023/08/08 08:08:18;;;;;;;0.10;0.10;;;;;;;13.13;100.00;96427.28;5015471;28;20041;-81
2023/08/08 08:11:04;;;;;;;0.10;0.10;;;;;;;13.06;100.00;96431.03;5015801;28;20048;-79
2023/08/08 08:13:49;;;;;;;0.10;0.10;;;;;;;13.52;100.00;96424.97;4999123;28;20076;-81
2023/08/08 08:16:35;;;;;;;0.15;0.15;;;;;;;13.89;100.00;96424.72;5016876;28;20034;-81
2023/08/08 08:19:21;;;;;;;0.10;0.10;;;;;;;13.97;100.00;96426.06;5013911;28;20045;-81
2023/08/08 08:22:07;;;;;;;0.10;0.10;;;;;;;13.81;100.00;96425.25;4999437;28;20030;-81
2023/08/08 08:24:53;;;;;;;0.20;0.20;;;;;;;14.00;100.00;96422.81;5018161;28;20091;-81
2023/08/08 08:27:39;;;;;;;0.10;0.10;;;;;;;13.92;100.00;96433.03;5013662;28;20045;-81
2023/08/08 08:30:25;;;;;;;0.10;0.10;;;;;;;13.79;100.00;96424.72;5014642;28;20120;-81
2023/08/08 08:33:11;;;;;;;0.20;0.20;;;;;;;14.39;100.00;96420.31;5014968;28;20038;-81
2023/08/08 08:35:59;;;;;;;0.10;0.10;;;;;;;14.23;100.00;96420.34;5016254;28;20064;-82
2023/08/08 08:38:46;;;;;;;0.10;0.10;;;;;;;14.65;100.00;96421.91;5014962;28;20380;-81
2023/08/08 08:41:37;;;;;;;0.10;0.10;;;;;;;14.60;100.00;96430.00;5015378;28;20033;-81
2023/08/08 08:44:24;;;;;;;0.10;0.10;;;;;;;14.27;100.00;96419.81;5014351;28;20126;-81
2023/08/08 08:47:12;;;;;;;0.10;0.10;;;;;;;15.07;100.00;96423.31;5012933;28;20056;-81
2023/08/08 08:50:01;;;;;;;0.10;0.10;;;;;;;15.05;100.00;96417.41;5018946;28;20034;-81
2023/08/08 08:52:46;;;;;;;0.10;0.10;;;;;;;15.32;100.00;96419.66;5014252;28;20115;-82
2023/08/08 08:55:32;;;;;;;0.10;0.10;;;;;;;15.64;100.00;96419.25;5016514;28;20101;-81
2023/08/08 08:58:20;;;;;;;0.10;0.10;;;;;;;16.16;100.00;96420.41;5013496;28;20128;-81
2023/08/08 09:01:07;;;;;;;0.10;0.10;;;;;;;15.94;100.00;96415.47;5015402;28;20037;-81
2023/08/08 09:03:53;;;;;;;0.10;0.10;;;;;;;15.88;100.00;96414.72;5014386;28;20124;-82
2023/08/08 09:06:39;;;;;;;0.10;0.10;;;;;;;15.91;100.00;96415.25;5016918;28;20049;-82
2023/08/08 09:09:25;;;;;;;0.10;0.10;;;;;;;15.87;100.00;96421.22;5015571;28;20112;-81
2023/08/08 09:12:12;;;;;;;0.00;0.00;;;;;;;15.58;100.00;96417.63;5018082;28;20037;-81
2023/08/08 09:14:58;;;;;;;0.10;0.10;;;;;;;15.79;100.00;96416.38;5016488;28;20048;-81
2023/08/08 09:17:45;;;;;;;0.10;0.10;;;;;;;15.80;100.00;96436.91;5013734;28;20045;-83
2023/08/08 09:20:31;;;;;;;0.10;0.10;;;;;;;16.12;100.00;96435.56;5016638;28;20056;-82
2023/08/08 09:23:16;;;;;;;0.20;0.20;;;;;;;16.08;100.00;96431.81;5013719;28;20389;-81
2023/08/08 09:26:02;;;;;;;0.10;0.10;;;;;;;16.27;100.00;96419.22;5017102;28;20087;-81
2023/08/08 09:28:48;;;;;;;0.10;0.10;;;;;;;16.66;100.00;96416.38;5014949;28;20752;-81
2023/08/08 09:31:35;;;;;;;0.13;0.13;;;;;;;16.98;100.00;96412.22;5015539;28;20515;-81
2023/08/08 09:34:26;;;;;;;0.10;0.10;;;;;;;16.93;100.00;96410.38;5015466;28;20081;-81
2023/08/08 09:37:13;;;;;;;0.17;0.17;;;;;;;16.77;100.00;96402.75;5014530;28;20049;-81
2023/08/08 09:40:03;;;;;;;0.17;0.17;;;;;;;17.62;100.00;96415.38;5014756;28;20148;-80
2023/08/08 09:42:54;;;;;;;0.10;0.10;;;;;;;17.43;100.00;96408.09;5013824;28;20036;-81
2023/08/08 09:45:41;;;;;;;0.10;0.10;;;;;;;17.87;100.00;96406.88;5015630;28;20043;-81
2023/08/08 09:48:32;;;;;;;0.17;0.17;;;;;;;17.88;100.00;96402.25;5015657;28;20104;-81
2023/08/08 09:51:20;;;;;;;0.10;0.10;;;;;;;17.96;100.00;96405.09;5015762;28;20112;-80
2023/08/08 09:54:06;;;;;;;0.10;0.10;;;;;;;18.07;100.00;96393.00;5017249;28;20120;-81
2023/08/08 09:56:53;;;;;;;0.10;0.10;;;;;;;17.91;100.00;96391.66;5017671;28;20029;-80
2023/08/08 09:59:39;;;;;;;0.10;0.10;;;;;;;18.06;100.00;96399.53;5019456;28;20089;-81
2023/08/08 10:02:25;;;;;;;0.17;0.17;;;;;;;17.55;100.00;96388.69;4999105;28;20048;-81
2023/08/08 10:05:13;;;;;;;0.20;0.20;;;;;;;17.76;100.00;96387.31;5019315;28;20050;-80
2023/08/08 10:07:59;;;;;;;0.20;0.20;;;;;;;18.07;100.00;96393.00;5018841;28;20046;-80
2023/08/08 10:10:50;;;;;;;0.13;0.13;;;;;;;18.10;100.00;96395.09;5017508;28;20055;-79
2023/08/08 10:13:36;;;;;;;0.10;0.10;;;;;;;17.85;100.00;96392.84;5015428;28;20041;-80
2023/08/08 10:16:22;;;;;;;0.13;0.13;;;;;;;18.04;100.00;96393.59;5021913;28;20037;-81
2023/08/08 10:19:08;;;;;;;0.10;0.10;;;;;;;18.38;100.00;96384.31;5017159;28;20128;-80
2023/08/08 10:22:00;;;;;;;0.10;0.10;;;;;;;18.37;100.00;96388.16;5020491;28;20406;-81
2023/08/08 10:24:48;;;;;;;0.20;0.20;;;;;;;18.19;100.00;96391.72;5020724;28;20159;-83
2023/08/08 10:27:35;;;;;;;0.20;0.20;;;;;;;18.08;100.00;96396.50;5000472;28;20049;-81
2023/08/08 10:30:21;;;;;;;0.10;0.10;;;;;;;18.20;100.00;96377.06;5020813;28;20096;-84
2023/08/08 10:33:15;;;;;;;0.20;0.20;;;;;;;18.44;100.00;96383.09;5016911;28;20041;-83
2023/08/08 10:36:09;;;;;;;0.20;0.20;;;;;;;18.73;99.93;96403.72;5020569;28;20140;-83
2023/08/08 10:38:58;;;;;;;0.20;0.20;;;;;;;19.23;100.00;96387.50;5016826;28;20415;-81
2023/08/08 10:41:48;;;;;;;0.10;0.10;;;;;;;19.49;97.09;96381.19;5012853;28;20045;-82
2023/08/08 10:44:42;;;;;;;0.10;0.10;;;;;;;19.85;95.71;96382.28;5002503;28;20061;-81
2023/08/08 10:47:35;;;;;;;0.10;0.10;;;;;;;19.47;88.83;96396.97;5015672;28;20430;-82
2023/08/08 10:50:24;;;;;;;0.13;0.13;;;;;;;19.45;89.59;96390.22;5019567;28;20681;-81
2023/08/08 10:53:10;;;;;;;0.10;0.10;;;;;;;20.10;90.15;96381.63;5017203;28;20053;-80
2023/08/08 10:56:04;;;;;;;0.10;0.10;;;;;;;19.88;87.89;96379.75;5002627;28;20508;-81
2023/08/08 10:58:49;;;;;;;0.20;0.20;;;;;;;19.97;88.72;96391.44;5018305;28;20442;-82
2023/08/08 11:01:36;;;;;;;0.10;0.10;;;;;;;19.55;93.80;96391.94;5017879;28;20075;-81
2023/08/08 11:04:24;;;;;;;0.10;0.10;;;;;;;20.40;93.58;96387.38;5018906;28;20510;-81
2023/08/08 11:07:10;;;;;;;0.10;0.10;;;;;;;20.33;87.85;96387.81;5018124;28;20049;-81
2023/08/08 11:09:57;;;;;;;0.10;0.10;;;;;;;20.20;87.20;96386.00;5018921;28;20034;-81
2023/08/08 11:12:53;;;;;;;0.20;0.20;;;;;;;19.97;86.32;96401.50;5017647;28;20038;-82
2023/08/08 11:15:39;;;;;;;0.10;0.10;;;;;;;19.69;89.04;96409.00;5014971;28;20064;-81
2023/08/08 11:18:25;;;;;;;0.20;0.20;;;;;;;20.94;86.18;96388.88;5016935;28;20076;-82
2023/08/08 11:21:11;;;;;;;0.10;0.10;;;;;;;20.15;90.58;96391.53;5018023;28;20685;-81
2023/08/08 11:23:57;;;;;;;0.20;0.20;;;;;;;19.66;94.41;96391.41;5013406;28;20142;-81
2023/08/08 11:26:47;;;;;;;0.17;0.17;;;;;;;19.21;95.37;96404.06;5016587;28;20033;-81
2023/08/08 11:29:33;;;;;;;0.20;0.20;;;;;;;19.15;94.45;96403.38;5001269;28;20910;-82
2023/08/08 11:32:19;;;;;;;0.10;0.10;;;;;;;19.32;90.89;96413.59;5015963;28;20841;-82
2023/08/08 11:35:05;;;;;;;0.10;0.10;;;;;;;19.08;92.01;96397.56;5015628;28;20202;-81
2023/08/08 11:38:02;;;;;;;0.10;0.10;;;;;;;18.63;93.22;96394.66;4997416;28;20040;-81
2023/08/08 11:40:48;;;;;;;0.20;0.20;;;;;;;18.30;96.06;96399.38;5017610;28;20037;-80
2023/08/08 11:43:34;;;;;;;0.20;0.20;;;;;;;18.96;90.62;96408.13;5014762;28;20589;-81
2023/08/08 11:46:24;;;;;;;0.25;0.25;;;;;;;19.37;89.44;96409.94;5017856;28;20107;-80
2023/08/08 11:49:10;;;;;;;0.20;0.20;;;;;;;19.82;86.08;96389.13;5015692;28;20110;-79
2023/08/08 11:51:55;;;;;;;0.20;0.20;;;;;;;19.79;86.25;96405.22;5020538;28;20038;-79
2023/08/08 11:54:41;;;;;;;0.10;0.10;;;;;;;19.35;88.92;96385.03;5022443;28;20041;-81
2023/08/08 11:57:27;;;;;;;0.17;0.17;;;;;;;18.28;94.25;96408.88;5006483;28;20038;-81
2023/08/08 12:00:14;;;;;;;0.10;0.10;;;;;;;17.59;99.26;96391.59;5022570;28;20045;-82
2023/08/08 12:03:01;;;;;;;0.10;0.10;;;;;;;17.04;100.00;96397.53;5004056;28;20068;-80
2023/08/08 12:05:48;;;;;;;0.10;0.10;;;;;;;17.04;100.00;96396.72;5015606;28;20077;-81
2023/08/08 12:08:34;;;;;;;0.10;0.10;;;;;;;16.90;100.00;96402.88;5015664;28;20072;-82
2023/08/08 12:11:20;;;;;;;0.10;0.10;;;;;;;16.91;100.00;96393.66;5018051;28;20048;-80
2023/08/08 12:14:13;;;;;;;0.10;0.10;;;;;;;17.44;100.00;96404.28;5013681;28;20068;-82
2023/08/08 12:16:59;;;;;;;0.10;0.10;;;;;;;17.88;100.00;96403.06;5013092;28;20045;-81
2023/08/08 12:19:47;;;;;;;0.10;0.10;;;;;;;17.55;100.00;96413.03;5017230;28;20095;-79
2023/08/08 12:22:33;;;;;;;0.13;0.13;;;;;;;17.32;100.00;96397.69;5014245;28;20046;-81
2023/08/08 12:25:19;;;;;;;0.17;0.17;;;;;;;18.19;100.00;96402.53;5018644;28;20538;-83
2023/08/08 12:28:05;;;;;;;0.15;0.15;;;;;;;18.54;96.19;96390.25;5015911;28;20038;-83
2023/08/08 12:30:51;;;;;;;0.10;0.10;;;;;;;19.03;94.92;96381.41;5019650;28;20128;-79
2023/08/08 12:33:37;;;;;;;0.10;0.10;;;;;;;18.52;97.66;96395.16;5018960;28;20041;-78
2023/08/08 12:36:23;;;;;;;0.10;0.10;;;;;;;17.67;100.00;96396.38;5021471;28;20386;-81
2023/08/08 12:39:10;;;;;;;0.10;0.10;;;;;;;17.29;100.00;96395.59;5020471;28;20144;-83
2023/08/08 12:41:56;;;;;;;0.20;0.20;;;;;;;17.14;100.00;96392.00;5015194;28;20036;-81
2023/08/08 12:44:42;;;;;;;0.20;0.20;;;;;;;16.71;100.00;96397.41;5004209;28;20037;-81
2023/08/08 12:47:29;;;;;;;0.10;0.10;;;;;;;16.61;100.00;96391.31;5019786;28;20037;-79
2023/08/08 12:50:15;;;;;;;0.10;0.10;;;;;;;16.53;100.00;96391.94;5019561;28;20140;-81
2023/08/08 12:53:04;;;;;;;0.10;0.10;;;;;;;16.52;100.00;96396.53;5018705;28;20575;-81
2023/08/08 12:55:49;;;;;;;0.20;0.20;;;;;;;16.43;100.00;96393.66;5018786;28;20498;-82
2023/08/08 12:58:35;;;;;;;0.20;0.20;;;;;;;16.29;100.00;96430.53;4987125;28;20156;-82
2023/08/08 13:01:21;;;;;;;0.10;0.10;;;;;;;16.35;100.00;96407.00;5016058;28;20033;-82